Time;durP1;ratioP1;P1;durP2;ratioP2;P2;SDS_P1;SDS_P2;PMS_P1;PMS_P2;Temp;Humidity;BMP_temperature;BMP_pressure;BME280_temperature;BME280_humidity;BME280_pressure;Samples;Min_cycle;Max_cycle;Signal;HPM_P1;HPM_P2
2022/12/09 00:01:30;;;;;;;;;;;;;;;13.46;77.32;101432.53;5134967;27;19943;-87
2022/12/09 00:03:56;;;;;;;;;;;;;;;13.50;77.23;101431.88;5116483;27;19911;-87
2022/12/09 00:06:22;;;;;;;;;;;;;;;13.49;77.14;101433.59;5091197;28;20409;-87
2022/12/09 00:08:48;;;;;;;;;;;;;;;13.43;77.42;101433.28;5130841;27;19964;-85
2022/12/09 00:11:14;;;;;;;;;;;;;;;13.49;77.15;101438.84;5126222;27;19916;-86
2022/12/09 00:13:39;;;;;;;;;;;;;;;13.48;77.20;101438.75;5095660;28;19922;-86
2022/12/09 00:16:05;;;;;;;;;;;;;;;13.46;77.21;101428.19;5102068;27;20273;-84
2022/12/09 00:18:31;;;;;;;;;;;;;;;13.44;77.21;101440.34;5103693;28;19912;-86
2022/12/09 00:20:56;;;;;;;;;;;;;;;13.46;77.16;101445.66;5112652;28;19972;-86
2022/12/09 00:23:22;;;;;;;;;;;;;;;13.42;77.34;101448.13;5112317;28;19922;-86
2022/12/09 00:25:47;;;;;;;;;;;;;;;13.43;77.39;101433.28;5114104;27;20616;-86
2022/12/09 00:28:13;;;;;;;;;;;;;;;13.44;77.39;101440.34;5114934;27;20462;-85
2022/12/09 00:30:38;;;;;;;;;;;;;;;13.48;77.30;101438.75;5114638;27;20403;-86
2022/12/09 00:33:03;;;;;;;;;;;;;;;13.48;77.14;101447.53;5119858;27;19999;-86
2022/12/09 00:35:29;;;;;;;;;;;;;;;13.48;77.10;101441.38;5122523;27;19916;-87
2022/12/09 00:37:54;;;;;;;;;;;;;;;13.48;77.09;101444.00;5113796;27;19986;-86
2022/12/09 00:40:20;;;;;;;;;;;;;;;13.48;76.97;101446.63;5116205;27;20002;-86
2022/12/09 00:42:45;;;;;;;;;;;;;;;13.50;76.93;101439.75;5115644;27;19918;-86
2022/12/09 00:45:11;;;;;;;;;;;;;;;13.43;77.01;101436.78;5116115;27;20010;-86
2022/12/09 00:47:36;;;;;;;;;;;;;;;13.44;77.13;101441.25;5133823;27;19941;-86
2022/12/09 00:50:02;;;;;;;;;;;;;;;13.48;77.03;101444.00;5116421;27;19911;-87
2022/12/09 00:52:27;;;;;;;;;;;;;;;13.44;76.86;101438.63;5116193;27;19915;-86
2022/12/09 00:54:53;;;;;;;;;;;;;;;13.45;77.07;101447.38;5120704;27;19911;-87
2022/12/09 00:57:18;;;;;;;;;;;;;;;13.46;77.09;101449.16;5134700;27;20368;-87
2022/12/09 00:59:44;;;;;;;;;;;;;;;13.46;77.01;101457.03;5134745;27;20569;-86
2022/12/09 01:02:09;;;;;;;;;;;;;;;13.46;77.23;101450.91;5116433;27;19951;-86
2022/12/09 01:04:34;;;;;;;;;;;;;;;13.43;77.03;101452.53;5099291;27;20304;-86
2022/12/09 01:07:00;;;;;;;;;;;;;;;13.46;76.92;101453.53;5114296;27;20387;-86
2022/12/09 01:09:25;;;;;;;;;;;;;;;13.41;76.96;101459.44;5116143;27;19996;-86
2022/12/09 01:11:51;;;;;;;;;;;;;;;13.43;77.15;101449.91;5120841;27;19927;-86
2022/12/09 01:14:16;;;;;;;;;;;;;;;13.35;77.58;101450.34;5113691;28;19912;-86
2022/12/09 01:16:42;;;;;;;;;;;;;;;13.35;77.42;101453.84;5131838;27;20009;-86
2022/12/09 01:19:07;;;;;;;;;;;;;;;13.37;77.19;101459.19;5123770;27;20408;-86
2022/12/09 01:21:33;;;;;;;;;;;;;;;13.40;77.36;101455.00;5107480;28;19916;-86
2022/12/09 01:23:59;;;;;;;;;;;;;;;13.34;77.32;101446.81;5113871;27;19915;-86
2022/12/09 01:26:24;;;;;;;;;;;;;;;13.41;77.13;101450.66;5085638;27;19919;-87
2022/12/09 01:28:51;;;;;;;;;;;;;;;13.41;77.05;101445.41;5123743;27;20843;-86
2022/12/09 01:31:21;;;;;;;;;;;;;;;13.39;77.21;101450.56;5098777;27;19912;-86
2022/12/09 01:33:46;;;;;;;;;;;;;;;13.36;77.58;101458.28;5105359;27;19916;-85
2022/12/09 01:36:22;;;;;;;;;;;;;;;13.39;77.27;101453.19;5133176;27;19919;-86
2022/12/09 01:38:48;;;;;;;;;;;;;;;13.32;77.74;101455.44;5134070;27;19912;-86
2022/12/09 01:41:13;;;;;;;;;;;;;;;13.38;77.32;101453.13;5104922;27;19938;-86
2022/12/09 01:43:39;;;;;;;;;;;;;;;13.36;77.50;101445.19;5106491;28;19916;-87
2022/12/09 01:46:04;;;;;;;;;;;;;;;13.41;77.17;101446.31;5114224;27;19951;-87
2022/12/09 01:48:31;;;;;;;;;;;;;;;13.37;77.39;101446.06;5109831;27;19951;-86
2022/12/09 01:50:56;;;;;;;;;;;;;;;13.36;77.54;101457.41;5105186;27;19915;-87
2022/12/09 01:53:25;;;;;;;;;;;;;;;13.38;77.62;101454.03;5133406;27;19915;-86
2022/12/09 01:55:52;;;;;;;;;;;;;;;13.35;77.58;101458.19;5115415;27;19943;-86
2022/12/09 01:58:17;;;;;;;;;;;;;;;13.33;77.44;101454.59;5096466;27;19922;-86
2022/12/09 02:00:43;;;;;;;;;;;;;;;13.33;77.58;101459.84;5115026;27;20296;-86
2022/12/09 02:03:08;;;;;;;;;;;;;;;13.32;77.47;101447.56;5122915;27;19911;-86
2022/12/09 02:05:34;;;;;;;;;;;;;;;13.38;77.35;101450.50;5090505;28;19927;-86
2022/12/09 02:07:59;;;;;;;;;;;;;;;13.39;77.35;101452.31;5093634;27;19922;-86
2022/12/09 02:10:24;;;;;;;;;;;;;;;13.41;77.04;101446.31;5132967;27;19922;-86
2022/12/09 02:12:56;;;;;;;;;;;;;;;13.32;77.57;101448.44;5114979;27;20400;-86
2022/12/09 02:15:29;;;;;;;;;;;;;;;13.39;77.34;101445.31;5108756;27;20404;-86
2022/12/09 02:17:57;;;;;;;;;;;;;;;13.38;77.24;101450.50;5109087;27;19915;-86
2022/12/09 02:20:33;;;;;;;;;;;;;;;13.34;77.30;101444.19;5088554;28;20403;-85
2022/12/09 02:23:19;;;;;;;;;;;;;;;13.39;77.27;101449.69;5106436;28;19934;-86
2022/12/09 02:25:52;;;;;;;;;;;;;;;13.38;77.23;101442.66;5111195;28;20300;-86
2022/12/09 02:28:29;;;;;;;;;;;;;;;13.38;77.12;101446.16;5112645;28;19920;-86
2022/12/09 02:31:13;;;;;;;;;;;;;;;13.36;77.26;101447.81;5112324;28;20457;-85
2022/12/09 02:33:57;;;;;;;;;;;;;;;13.28;77.75;101445.56;5111955;28;19916;-86
2022/12/09 02:36:23;;;;;;;;;;;;;;;13.31;77.61;101448.34;5097227;28;19916;-83
2022/12/09 02:38:48;;;;;;;;;;;;;;;13.31;77.50;101444.00;5106303;28;20293;-86
2022/12/09 02:41:24;;;;;;;;;;;;;;;13.31;77.75;101443.13;5110855;28;19912;-86
2022/12/09 02:43:51;;;;;;;;;;;;;;;13.31;77.74;101449.25;5111147;28;20368;-84
2022/12/09 02:46:16;;;;;;;;;;;;;;;13.34;77.48;101449.44;5093832;28;19919;-87
2022/12/09 02:48:42;;;;;;;;;;;;;;;13.31;77.78;101448.34;5093974;28;19919;-86
2022/12/09 02:51:09;;;;;;;;;;;;;;;13.33;77.64;101447.63;5088858;28;19935;-87
2022/12/09 02:53:35;;;;;;;;;;;;;;;13.28;77.98;101446.44;5078845;28;19920;-86
2022/12/09 02:56:00;;;;;;;;;;;;;;;13.32;77.61;101440.59;5105098;28;19919;-87
2022/12/09 02:58:25;;;;;;;;;;;;;;;13.28;78.03;101453.41;5099649;28;19912;-87
2022/12/09 03:00:53;;;;;;;;;;;;;;;13.23;78.03;101448.81;5110165;28;20376;-87
2022/12/09 03:03:18;;;;;;;;;;;;;;;13.28;77.93;101443.81;5091865;28;19912;-86
2022/12/09 03:05:47;;;;;;;;;;;;;;;13.27;77.81;101439.41;5105008;28;19912;-85
2022/12/09 03:08:12;;;;;;;;;;;;;;;13.24;78.00;101436.59;5111723;28;19912;-86
2022/12/09 03:10:38;;;;;;;;;;;;;;;13.28;77.79;101430.72;5110335;28;19915;-87
2022/12/09 03:13:05;;;;;;;;;;;;;;;13.27;78.11;101438.50;5110610;28;19976;-86
2022/12/09 03:15:30;;;;;;;;;;;;;;;13.35;77.54;101440.72;5110698;28;19916;-86
2022/12/09 03:17:56;;;;;;;;;;;;;;;13.30;77.66;101434.34;5102351;28;20395;-85
2022/12/09 03:20:22;;;;;;;;;;;;;;;13.31;77.71;101450.97;5087312;28;19927;-86
2022/12/09 03:22:48;;;;;;;;;;;;;;;13.32;77.56;101458.06;5110570;28;19943;-86
2022/12/09 03:25:32;;;;;;;;;;;;;;;13.35;77.36;101455.56;5104512;28;20000;-87
2022/12/09 03:28:02;;;;;;;;;;;;;;;13.31;77.57;101457.13;5109660;28;19912;-87
2022/12/09 03:30:32;;;;;;;;;;;;;;;13.28;77.78;101469.16;5109931;28;19919;-86
2022/12/09 03:32:57;;;;;;;;;;;;;;;13.31;77.67;101467.63;5105305;28;19916;-87
2022/12/09 03:35:24;;;;;;;;;;;;;;;13.33;77.51;101460.72;5111498;28;19912;-86
2022/12/09 03:37:50;;;;;;;;;;;;;;;13.33;77.31;101455.50;5092547;28;20286;-87
2022/12/09 03:40:16;;;;;;;;;;;;;;;13.31;77.61;101453.59;5085355;28;19923;-86
2022/12/09 03:43:08;;;;;;;;;;;;;;;13.29;77.66;101455.25;5105082;28;19919;-87
2022/12/09 03:45:33;;;;;;;;;;;;;;;13.27;77.69;101455.16;5098642;28;19918;-87
2022/12/09 03:47:59;;;;;;;;;;;;;;;13.30;77.72;101463.22;5110497;28;19915;-85
2022/12/09 03:50:26;;;;;;;;;;;;;;;13.27;77.75;101454.22;5093106;28;19923;-86
2022/12/09 03:53:00;;;;;;;;;;;;;;;13.32;77.39;101450.19;5110474;28;19943;-85
2022/12/09 03:55:49;;;;;;;;;;;;;;;13.35;77.34;101452.97;5078407;28;19916;-85
2022/12/09 03:58:14;;;;;;;;;;;;;;;13.36;77.13;101454.78;5085666;28;19919;-85
2022/12/09 04:00:39;;;;;;;;;;;;;;;13.32;77.40;101453.69;5091723;28;19912;-85
2022/12/09 04:03:05;;;;;;;;;;;;;;;13.28;77.49;101461.28;5101796;28;20007;-85
2022/12/09 04:05:31;;;;;;;;;;;;;;;13.30;77.48;101454.44;5108258;28;20366;-85
2022/12/09 04:07:56;;;;;;;;;;;;;;;13.32;77.41;101455.44;5091183;28;20309;-87
2022/12/09 04:10:21;;;;;;;;;;;;;;;13.36;77.17;101458.28;5088668;28;19919;-87
2022/12/09 04:12:47;;;;;;;;;;;;;;;13.35;77.40;101469.59;5111445;28;19916;-86
2022/12/09 04:15:12;;;;;;;;;;;;;;;13.27;77.45;101467.34;5093468;28;19947;-87
2022/12/09 04:17:38;;;;;;;;;;;;;;;13.28;77.56;101458.66;5108587;28;19912;-86
2022/12/09 04:20:03;;;;;;;;;;;;;;;13.32;77.36;101465.91;5122185;27;19974;-86
2022/12/09 04:22:29;;;;;;;;;;;;;;;13.31;77.48;101466.72;5117247;27;19919;-86
2022/12/09 04:24:54;;;;;;;;;;;;;;;13.29;77.43;101465.72;5134425;27;19919;-84
2022/12/09 04:27:20;;;;;;;;;;;;;;;13.33;77.46;101470.34;5088553;27;19911;-85
2022/12/09 04:29:45;;;;;;;;;;;;;;;13.39;76.98;101468.94;5135285;27;20349;-85
2022/12/09 04:32:10;;;;;;;;;;;;;;;13.33;77.32;101467.72;5134942;27;19916;-86
2022/12/09 04:34:36;;;;;;;;;;;;;;;13.31;77.33;101466.72;5131722;27;19965;-85
2022/12/09 04:37:01;;;;;;;;;;;;;;;13.28;77.47;101474.41;5116863;27;19968;-85
2022/12/09 04:39:27;;;;;;;;;;;;;;;13.25;77.83;101475.16;5111426;27;19926;-86
2022/12/09 04:41:52;;;;;;;;;;;;;;;13.30;77.63;101472.81;5133641;27;19984;-86
2022/12/09 04:44:18;;;;;;;;;;;;;;;13.28;77.54;101477.03;5116824;27;20391;-86
2022/12/09 04:46:43;;;;;;;;;;;;;;;13.20;77.92;101474.88;5116539;27;20006;-85
2022/12/09 04:49:08;;;;;;;;;;;;;;;13.23;77.96;101480.31;5102026;27;19918;-85
2022/12/09 04:51:34;;;;;;;;;;;;;;;13.23;77.67;101474.16;5105703;28;19912;-85
2022/12/09 04:53:59;;;;;;;;;;;;;;;13.23;78.19;101484.66;5128602;27;19928;-86
2022/12/09 04:56:25;;;;;;;;;;;;;;;13.22;77.96;101490.69;5105137;27;20372;-84
2022/12/09 04:58:50;;;;;;;;;;;;;;;13.24;78.16;101489.06;5120498;27;19980;-85
2022/12/09 05:01:17;;;;;;;;;;;;;;;13.24;77.92;101489.06;5103828;28;20542;-84
2022/12/09 05:03:42;;;;;;;;;;;;;;;13.24;77.75;101487.34;5096162;28;19918;-85
2022/12/09 05:06:10;;;;;;;;;;;;;;;13.28;77.89;101492.78;5114917;27;20381;-87
2022/12/09 05:08:35;;;;;;;;;;;;;;;13.26;78.23;101491.78;5095673;28;20010;-87
2022/12/09 05:11:01;;;;;;;;;;;;;;;13.25;77.99;101498.75;5111975;28;19951;-86
2022/12/09 05:13:27;;;;;;;;;;;;;;;13.27;77.94;101493.56;5106920;28;20003;-86
2022/12/09 05:15:59;;;;;;;;;;;;;;;13.28;77.84;101492.78;5112884;27;20297;-85
2022/12/09 05:18:25;;;;;;;;;;;;;;;13.20;77.92;101498.47;5134231;27;20017;-85
2022/12/09 05:20:50;;;;;;;;;;;;;;;13.23;77.99;101508.25;5130767;27;19943;-85
2022/12/09 05:23:16;;;;;;;;;;;;;;;13.27;77.62;101506.69;5106860;27;19915;-85
2022/12/09 05:25:41;;;;;;;;;;;;;;;13.22;77.86;101499.47;5130752;27;20376;-85
2022/12/09 05:28:06;;;;;;;;;;;;;;;13.21;77.98;101496.78;5130707;27;20414;-85
2022/12/09 05:30:32;;;;;;;;;;;;;;;13.23;77.85;101506.53;5099091;28;20388;-86
2022/12/09 05:32:57;;;;;;;;;;;;;;;13.22;77.95;101506.44;5132221;27;19915;-86
2022/12/09 05:35:23;;;;;;;;;;;;;;;13.22;77.74;101511.69;5112586;27;20403;-85
2022/12/09 05:37:50;;;;;;;;;;;;;;;13.23;77.85;101503.91;5112924;27;20123;-85
2022/12/09 05:40:15;;;;;;;;;;;;;;;13.22;77.94;101507.34;5114877;27;19916;-85
2022/12/09 05:42:41;;;;;;;;;;;;;;;13.20;77.89;101508.97;5115116;27;20376;-86
2022/12/09 05:45:06;;;;;;;;;;;;;;;13.20;77.88;101511.59;5133136;27;19916;-85
2022/12/09 05:47:32;;;;;;;;;;;;;;;13.22;77.93;101517.81;5115019;27;20410;-85
2022/12/09 05:49:57;;;;;;;;;;;;;;;13.17;78.00;101516.69;5112758;27;19922;-86
2022/12/09 05:52:23;;;;;;;;;;;;;;;13.26;77.61;101524.16;5133452;27;20293;-86
2022/12/09 05:54:48;;;;;;;;;;;;;;;13.21;77.81;101525.63;5089225;27;19968;-85
2022/12/09 05:57:13;;;;;;;;;;;;;;;13.24;77.73;101523.16;5131022;27;20282;-85
2022/12/09 05:59:39;;;;;;;;;;;;;;;13.20;77.65;101511.59;5115348;27;20407;-85
2022/12/09 06:02:04;;;;;;;;;;;;;;;13.24;77.55;101521.44;5115106;27;20392;-85
2022/12/09 06:04:30;;;;;;;;;;;;;;;13.29;77.56;101531.31;5133366;27;20358;-86
2022/12/09 06:06:55;;;;;;;;;;;;;;;13.24;77.57;101534.53;5114830;27;19943;-86
2022/12/09 06:09:20;;;;;;;;;;;;;;;13.32;77.18;101532.41;5115088;27;20391;-85
2022/12/09 06:11:46;;;;;;;;;;;;;;;13.27;77.49;101525.03;5113878;27;20412;-87
2022/12/09 06:14:11;;;;;;;;;;;;;;;13.24;77.57;101518.81;5112318;27;20373;-89
2022/12/09 06:16:38;;;;;;;;;;;;;;;13.25;77.45;101527.59;5096870;27;20312;-87
2022/12/09 06:19:04;;;;;;;;;;;;;;;13.21;77.53;101521.28;5107461;28;20384;-87
2022/12/09 06:21:29;;;;;;;;;;;;;;;13.22;77.69;101530.03;5109954;27;19922;-89
2022/12/09 06:23:55;;;;;;;;;;;;;;;13.22;77.64;101528.31;5095307;27;19926;-88
2022/12/09 06:26:28;;;;;;;;;;;;;;;13.17;77.89;101521.94;5111002;27;19911;-88
2022/12/09 06:28:53;;;;;;;;;;;;;;;13.21;77.81;101515.13;5083071;28;20419;-86
2022/12/09 06:31:19;;;;;;;;;;;;;;;13.23;77.57;101513.50;5104232;27;19916;-87
2022/12/09 06:33:45;;;;;;;;;;;;;;;13.23;77.55;101518.75;5097690;27;20617;-86
2022/12/09 06:36:10;;;;;;;;;;;;;;;13.22;77.50;101527.41;5093676;27;20574;-86
2022/12/09 06:38:36;;;;;;;;;;;;;;;13.24;77.53;101531.03;5112613;27;19915;-86
2022/12/09 06:41:05;;;;;;;;;;;;;;;13.29;77.37;101542.69;5091353;27;19964;-86
2022/12/09 06:43:31;;;;;;;;;;;;;;;13.26;77.39;101545.13;5110091;27;19922;-87
2022/12/09 06:45:56;;;;;;;;;;;;;;;13.24;77.59;101545.03;5109348;27;19923;-85
2022/12/09 06:48:22;;;;;;;;;;;;;;;13.19;77.59;101551.75;5112534;27;19940;-84
2022/12/09 06:50:49;;;;;;;;;;;;;;;13.22;77.53;101551.91;5119327;27;20580;-84
2022/12/09 06:53:14;;;;;;;;;;;;;;;13.23;77.38;101534.50;5102777;28;19916;-85
2022/12/09 06:55:40;;;;;;;;;;;;;;;13.26;77.52;101539.88;5110073;28;19916;-84
2022/12/09 06:58:06;;;;;;;;;;;;;;;13.22;77.56;101543.16;5126765;27;19916;-84
2022/12/09 07:00:32;;;;;;;;;;;;;;;13.22;77.73;101543.16;5090158;28;19916;-84
2022/12/09 07:02:57;;;;;;;;;;;;;;;13.24;77.27;101545.03;5131329;27;19918;-83
2022/12/09 07:05:23;;;;;;;;;;;;;;;13.24;77.50;101544.16;5128389;27;19919;-84
2022/12/09 07:07:49;;;;;;;;;;;;;;;13.26;77.43;101544.25;5131626;27;20350;-85
2022/12/09 07:10:14;;;;;;;;;;;;;;;13.22;77.46;101549.28;5132318;28;19911;-85
2022/12/09 07:12:39;;;;;;;;;;;;;;;13.28;77.40;101547.84;5119362;28;19922;-84
2022/12/09 07:15:05;;;;;;;;;;;;;;;13.22;77.56;101554.53;5113937;28;20364;-85
2022/12/09 07:17:31;;;;;;;;;;;;;;;13.23;77.53;101553.75;5123782;28;20085;-85
2022/12/09 07:19:56;;;;;;;;;;;;;;;13.27;77.45;101549.59;5104494;28;19920;-84
2022/12/09 07:22:22;;;;;;;;;;;;;;;13.20;77.57;101553.56;5129813;28;19915;-86
2022/12/09 07:24:47;;;;;;;;;;;;;;;13.23;77.56;101558.09;5124649;28;19916;-85
2022/12/09 07:27:13;;;;;;;;;;;;;;;13.23;77.54;101559.00;5104062;28;19911;-85
2022/12/09 07:29:39;;;;;;;;;;;;;;;13.21;77.47;101562.34;5113609;28;19961;-85
2022/12/09 07:32:04;;;;;;;;;;;;;;;13.28;77.41;101567.09;5113507;28;20361;-85
2022/12/09 07:34:30;;;;;;;;;;;;;;;13.30;77.45;101565.50;5109403;27;19983;-85
2022/12/09 07:36:55;;;;;;;;;;;;;;;13.22;77.56;101567.66;5118301;27;20449;-86
2022/12/09 07:39:21;;;;;;;;;;;;;;;13.21;77.72;101565.88;5136152;27;19911;-86
2022/12/09 07:41:53;;;;;;;;;;;;;;;13.24;77.57;101571.28;5117493;27;19933;-86
2022/12/09 07:44:18;;;;;;;;;;;;;;;13.23;77.55;101568.59;5132910;27;19994;-85
2022/12/09 07:46:43;;;;;;;;;;;;;;;13.32;77.16;101569.13;5117721;27;20002;-85
2022/12/09 07:49:09;;;;;;;;;;;;;;;13.27;77.38;101577.50;5103470;27;19980;-85
2022/12/09 07:51:34;;;;;;;;;;;;;;;13.26;77.33;101567.84;5109744;28;20351;-86
2022/12/09 07:54:00;;;;;;;;;;;;;;;13.28;77.24;101576.72;5130951;27;20006;-87
2022/12/09 07:56:26;;;;;;;;;;;;;;;13.27;77.42;101567.94;5101779;28;19920;-88
2022/12/09 07:58:53;;;;;;;;;;;;;;;13.25;77.30;101572.19;5127377;27;19923;-88
2022/12/09 08:01:21;;;;;;;;;;;;;;;13.27;77.27;101567.94;5090371;27;19915;-88
2022/12/09 08:03:48;;;;;;;;;;;;;;;13.27;77.53;101569.63;5117848;27;19919;-87
2022/12/09 08:06:14;;;;;;;;;;;;;;;13.25;77.50;101566.94;5106098;27;19918;-88
2022/12/09 08:08:40;;;;;;;;;;;;;;;13.29;77.30;101565.41;5113418;28;19911;-87
2022/12/09 08:11:07;;;;;;;;;;;;;;;13.31;77.28;101556.81;5113435;27;19927;-87
2022/12/09 08:13:32;;;;;;;;;;;;;;;13.28;77.46;101560.97;5109688;27;19927;-88
2022/12/09 08:16:01;;;;;;;;;;;;;;;13.27;77.47;101567.94;5112274;27;19916;-88
2022/12/09 08:18:27;;;;;;;;;;;;;;;13.26;77.55;101557.34;5126933;27;19915;-88
2022/12/09 08:20:53;;;;;;;;;;;;;;;13.26;77.40;101552.09;5116986;27;20066;-88
2022/12/09 08:23:18;;;;;;;;;;;;;;;13.28;77.24;101548.75;5105512;28;20571;-87
2022/12/09 08:25:44;;;;;;;;;;;;;;;13.30;77.21;101544.53;5112506;27;20392;-88
2022/12/09 08:28:09;;;;;;;;;;;;;;;13.29;77.25;101536.56;5114022;27;20375;-87
2022/12/09 08:30:35;;;;;;;;;;;;;;;13.31;77.31;101527.94;5105429;27;19916;-86
2022/12/09 08:33:00;;;;;;;;;;;;;;;13.24;77.38;101534.53;5123759;27;20293;-87
2022/12/09 08:35:28;;;;;;;;;;;;;;;13.30;77.31;101548.88;5113565;27;20411;-86
2022/12/09 08:37:54;;;;;;;;;;;;;;;13.28;77.36;101534.75;5104891;27;20358;-85
2022/12/09 08:40:19;;;;;;;;;;;;;;;13.29;77.23;101541.81;5116095;27;19912;-87
2022/12/09 08:42:45;;;;;;;;;;;;;;;13.26;77.59;101544.25;5122141;27;20002;-87
2022/12/09 08:45:10;;;;;;;;;;;;;;;13.27;77.30;101552.19;5106424;27;19916;-85
2022/12/09 08:47:35;;;;;;;;;;;;;;;13.25;77.56;101556.47;5121681;27;19923;-87
2022/12/09 08:50:01;;;;;;;;;;;;;;;13.24;77.63;101545.03;5105058;28;19923;-87
2022/12/09 08:52:26;;;;;;;;;;;;;;;13.24;77.57;101545.03;5128653;27;19915;-86
2022/12/09 08:54:52;;;;;;;;;;;;;;;13.24;77.69;101547.66;5121472;27;19911;-86
2022/12/09 08:57:21;;;;;;;;;;;;;;;13.27;77.43;101546.03;5129656;27;20384;-86
2022/12/09 08:59:47;;;;;;;;;;;;;;;13.23;77.55;101548.50;5134503;27;19912;-86
2022/12/09 09:02:12;;;;;;;;;;;;;;;13.21;77.77;101537.03;5134171;27;19919;-86
2022/12/09 09:04:38;;;;;;;;;;;;;;;13.25;77.51;101535.47;5125939;27;20289;-86
2022/12/09 09:07:03;;;;;;;;;;;;;;;13.27;77.54;101544.34;5095362;28;19915;-87
2022/12/09 09:09:28;;;;;;;;;;;;;;;13.32;77.40;101545.50;5114570;27;19912;-87
2022/12/09 09:11:54;;;;;;;;;;;;;;;13.33;77.30;101538.53;5095870;28;20480;-86
2022/12/09 09:14:20;;;;;;;;;;;;;;;13.33;77.18;101534.19;5130504;27;19915;-87
2022/12/09 09:16:45;;;;;;;;;;;;;;;13.27;77.35;101540.78;5110120;28;19922;-88
2022/12/09 09:19:15;;;;;;;;;;;;;;;13.29;77.37;101541.81;5095271;28;19920;-85
2022/12/09 09:21:40;;;;;;;;;;;;;;;13.28;77.48;101534.75;5112024;27;19915;-87
2022/12/09 09:24:07;;;;;;;;;;;;;;;13.29;77.55;101531.31;5112563;27;19915;-86
2022/12/09 09:26:32;;;;;;;;;;;;;;;13.27;77.62;101530.28;5114896;27;20357;-86
2022/12/09 09:28:58;;;;;;;;;;;;;;;13.26;77.68;101536.38;5134034;27;19947;-87
2022/12/09 09:31:23;;;;;;;;;;;;;;;13.28;77.38;101530.38;5134159;27;19915;-86
2022/12/09 09:33:49;;;;;;;;;;;;;;;13.33;77.25;101528.94;5109936;27;20408;-86
2022/12/09 09:36:16;;;;;;;;;;;;;;;13.32;77.24;101535.03;5107641;27;19943;-86
2022/12/09 09:38:41;;;;;;;;;;;;;;;13.28;77.47;101524.25;5105164;27;19916;-86
2022/12/09 09:41:27;;;;;;;;;;;;;;;13.27;77.44;101518.09;5107013;28;19916;-86
2022/12/09 09:43:52;;;;;;;;;;;;;;;13.29;77.40;101512.94;5116002;27;19916;-87
2022/12/09 09:46:29;;;;;;;;;;;;;;;13.27;77.53;101510.22;5104416;28;19972;-87
2022/12/09 09:48:55;;;;;;;;;;;;;;;13.26;77.51;101503.16;5090545;27;19916;-88
2022/12/09 09:51:20;;;;;;;;;;;;;;;13.27;77.62;101497.13;5115505;27;19964;-87
2022/12/09 09:53:48;;;;;;;;;;;;;;;13.28;77.72;101498.91;5123885;27;19965;-87
2022/12/09 09:56:18;;;;;;;;;;;;;;;13.29;77.56;101494.59;5128327;27;19923;-87
2022/12/09 09:58:45;;;;;;;;;;;;;;;13.31;77.43;101495.56;5083690;28;19988;-87
2022/12/09 10:01:11;;;;;;;;;;;;;;;13.32;77.36;101486.91;5110355;27;19926;-87
2022/12/09 10:03:52;;;;;;;;;;;;;;;13.36;77.24;101494.13;5104551;27;19915;-86
2022/12/09 10:06:22;;;;;;;;;;;;;;;13.34;77.25;101485.28;5120739;27;19964;-87
2022/12/09 10:09:01;;;;;;;;;;;;;;;13.31;77.70;101490.34;5108846;28;19912;-87
2022/12/09 10:11:30;;;;;;;;;;;;;;;13.31;77.43;101482.47;5085238;27;20049;-87
2022/12/09 10:14:05;;;;;;;;;;;;;;;13.36;77.15;101475.75;5125697;27;19916;-86
2022/12/09 10:16:30;;;;;;;;;;;;;;;13.41;77.12;101472.53;5130132;27;19958;-87
2022/12/09 10:19:01;;;;;;;;;;;;;;;13.40;77.10;101475.13;5127714;27;19950;-84
2022/12/09 10:21:27;;;;;;;;;;;;;;;13.35;77.38;101471.31;5111731;27;19929;-86
2022/12/09 10:23:52;;;;;;;;;;;;;;;13.36;77.38;101468.78;5113755;27;19919;-86
2022/12/09 10:26:25;;;;;;;;;;;;;;;13.36;77.30;101460.91;5113091;27;20315;-86
2022/12/09 10:28:53;;;;;;;;;;;;;;;13.34;77.43;101457.31;5094629;27;19923;-85
2022/12/09 10:31:18;;;;;;;;;;;;;;;13.33;77.32;101452.88;5094860;27;19919;-84
2022/12/09 10:33:44;;;;;;;;;;;;;;;13.32;77.48;101444.94;5129528;27;20524;-86
2022/12/09 10:36:22;;;;;;;;;;;;;;;13.36;77.39;101441.66;5131733;27;20308;-86
2022/12/09 10:38:47;;;;;;;;;;;;;;;13.31;77.43;101444.00;5108466;27;19919;-86
2022/12/09 10:43:33;;;;;;;;;;;;;;;13.35;77.41;101438.09;5125383;27;20010;-86
2022/12/09 10:44:31;;;;;;;;;;;;;;;13.34;77.49;101433.69;5115487;27;19919;-84
2022/12/09 10:46:57;;;;;;;;;;;;;;;13.33;77.32;101431.88;5126841;27;20408;-86
2022/12/09 10:49:23;;;;;;;;;;;;;;;13.39;77.29;101428.69;5108820;27;19922;-86
2022/12/09 10:51:50;;;;;;;;;;;;;;;13.37;77.14;101420.72;5100052;28;19916;-87
2022/12/09 10:54:43;;;;;;;;;;;;;;;13.39;77.06;101429.59;5090702;27;19927;-86
2022/12/09 10:57:11;;;;;;;;;;;;;;;13.39;77.26;101421.72;5117042;27;20346;-86
2022/12/09 10:59:37;;;;;;;;;;;;;;;13.34;77.33;101419.69;5128973;27;19919;-86
2022/12/09 11:02:17;;;;;;;;;;;;;;;13.38;77.38;101417.31;5094373;28;19922;-85
2022/12/09 11:04:43;;;;;;;;;;;;;;;13.37;77.47;101414.59;5100563;28;19937;-84
2022/12/09 11:07:11;;;;;;;;;;;;;;;13.42;77.46;101402.63;5113095;28;20380;-84
2022/12/09 11:09:38;;;;;;;;;;;;;;;13.41;77.43;101393.84;5125435;27;19919;-86
2022/12/09 11:12:04;;;;;;;;;;;;;;;13.39;77.62;101397.22;5103025;28;20010;-84
2022/12/09 11:14:33;;;;;;;;;;;;;;;13.38;77.68;101398.94;5088298;28;19915;-86
2022/12/09 11:17:15;;;;;;;;;;;;;;;13.42;77.68;101400.91;5128032;28;19912;-86
2022/12/09 11:19:40;;;;;;;;;;;;;;;13.43;77.53;101404.41;5107009;28;20424;-84
2022/12/09 11:22:12;;;;;;;;;;;;;;;13.42;77.68;101406.16;5113598;28;19963;-86
2022/12/09 11:24:39;;;;;;;;;;;;;;;13.47;77.35;101416.88;5108592;28;19912;-86
2022/12/09 11:27:17;;;;;;;;;;;;;;;13.50;77.28;101418.75;5132247;28;19915;-87
2022/12/09 11:29:42;;;;;;;;;;;;;;;13.48;77.38;101412.53;5094078;28;20439;-87
2022/12/09 11:32:11;;;;;;;;;;;;;;;13.48;77.44;101412.53;5104806;28;19963;-87
2022/12/09 11:34:36;;;;;;;;;;;;;;;13.46;77.43;101408.91;5092272;28;19926;-86
2022/12/09 11:37:02;;;;;;;;;;;;;;;13.47;77.27;101411.63;5110640;28;19915;-87
2022/12/09 11:39:28;;;;;;;;;;;;;;;13.46;77.12;101407.19;5102733;28;19915;-86
2022/12/09 11:42:13;;;;;;;;;;;;;;;13.43;77.44;101404.41;5113583;28;20442;-86
2022/12/09 11:44:59;;;;;;;;;;;;;;;13.47;77.32;101402.88;5113051;28;19916;-86
2022/12/09 11:47:32;;;;;;;;;;;;;;;13.49;77.35;101404.75;5110320;28;19919;-87
2022/12/09 11:50:16;;;;;;;;;;;;;;;13.57;76.98;101399.91;5130979;28;19919;-86
2022/12/09 11:52:41;;;;;;;;;;;;;;;13.56;77.02;101393.72;5128830;28;19915;-86
2022/12/09 11:55:33;;;;;;;;;;;;;;;13.54;77.12;101389.22;5105471;28;19911;-86
2022/12/09 11:58:09;;;;;;;;;;;;;;;13.57;77.23;101387.69;5128145;28;20013;-87
2022/12/09 12:00:40;;;;;;;;;;;;;;;13.61;77.06;101388.75;5092051;28;19915;-87
2022/12/09 12:03:16;;;;;;;;;;;;;;;13.61;77.09;101383.50;5093108;28;19923;-87
2022/12/09 12:05:48;;;;;;;;;;;;;;;13.62;76.98;101375.69;5113566;28;19911;-86
2022/12/09 12:08:17;;;;;;;;;;;;;;;13.62;77.23;101382.66;5113582;28;20388;-87
2022/12/09 12:10:44;;;;;;;;;;;;;;;13.62;77.38;101385.28;5106319;28;20508;-86
2022/12/09 12:13:16;;;;;;;;;;;;;;;13.60;77.62;101377.31;5113466;28;20395;-86
2022/12/09 12:15:41;;;;;;;;;;;;;;;13.65;77.40;101377.56;5132034;28;19919;-87
2022/12/09 12:18:08;;;;;;;;;;;;;;;13.67;77.38;101375.03;5131887;28;20380;-86
2022/12/09 12:20:54;;;;;;;;;;;;;;;13.64;77.65;101373.16;5132602;27;19925;-87
2022/12/09 12:23:22;;;;;;;;;;;;;;;13.67;77.45;101369.78;5117863;27;19960;-87
2022/12/09 12:25:57;;;;;;;;;;;;;;;13.64;77.60;101367.91;5098534;27;19912;-87
2022/12/09 12:28:49;;;;;;;;;;;;;;;13.63;77.86;101367.00;5117508;27;19911;-87
2022/12/09 12:31:20;;;;;;;;;;;;;;;13.64;78.22;101362.66;5097746;27;19911;-86
2022/12/09 12:33:46;;;;;;;;;;;;;;;13.66;78.08;101362.75;5135646;27;20424;-87
2022/12/09 12:36:17;;;;;;;;;;;;;;;13.66;78.25;101363.63;5116772;27;19994;-87
2022/12/09 12:38:42;;;;;;;;;;;;;;;13.65;78.88;101369.69;5096085;28;19934;-87